Terminal Aerodrome Forecast
Issued by NWS Melbourne, FL

Home | Current Version | Previous Version | Text Only | Print | Product List | Glossary On
Versions: 1 2 3 4 5 6 7 8 9 10 11 12 13 14 15 16 17 18 19 20
000
FTUS42 KMLB 011700
TAFVRB
TAF
KVRB 011737Z 0118/0218 31005KT P6SM VCTS BKN035CB BKN070
      TEMPO 0118/0122 3SM SHRA BKN030
     FM012300 08006KT P6SM FEW025 SCT100 SCT250
     FM020300 27004KT P6SM SCT012 BKN030=

USA.gov is the U.S. government's official web portal to all federal, state and local government web resources and services.